createdAt,value
2024-04-30T00:01:37.196Z,12.52
2024-04-30T00:04:13.986Z,12.48
2024-04-30T00:06:47.411Z,12.50
2024-04-30T00:09:20.553Z,12.45
2024-04-30T00:12:01.796Z,12.48
2024-04-30T00:14:55.640Z,12.56
2024-04-30T00:17:31.385Z,12.50
2024-04-30T00:20:05.231Z,12.50
2024-04-30T00:22:38.479Z,12.60
2024-04-30T00:25:11.662Z,12.45
2024-04-30T00:27:47.099Z,12.53
2024-04-30T00:30:20.334Z,12.55
2024-04-30T00:32:56.821Z,12.44
2024-04-30T00:35:32.535Z,12.40
2024-04-30T00:38:05.653Z,12.51
2024-04-30T00:40:38.912Z,12.50
2024-04-30T00:43:12.381Z,12.42
2024-04-30T00:45:49.256Z,12.36
2024-04-30T00:48:39.284Z,12.35
2024-04-30T00:51:23.192Z,12.26
2024-04-30T00:54:06.143Z,12.24
2024-04-30T00:56:46.995Z,12.26
2024-04-30T00:59:30.367Z,12.24
2024-04-30T01:02:10.079Z,12.06
2024-04-30T01:08:17.604Z,12.23
2024-04-30T01:10:53.448Z,12.18
2024-04-30T01:13:33.186Z,12.22
2024-04-30T01:16:07.938Z,12.40
2024-04-30T01:18:41.368Z,12.54
2024-04-30T01:22:08.368Z,12.50
2024-04-30T01:24:46.986Z,12.45
2024-04-30T01:27:29.323Z,12.51
2024-04-30T01:30:04.159Z,12.48
2024-04-30T01:32:47.727Z,12.60
2024-04-30T01:35:24.084Z,12.48
2024-04-30T01:37:57.339Z,12.50
2024-04-30T01:40:33.051Z,12.51
2024-04-30T01:43:10.821Z,12.41
2024-04-30T01:46:31.312Z,12.41
2024-04-30T01:49:34.856Z,12.33
2024-04-30T01:52:33.802Z,12.26
2024-04-30T01:55:16.908Z,12.21
2024-04-30T01:58:03.440Z,12.19
2024-04-30T02:02:21.272Z,12.06
2024-04-30T02:04:53.974Z,12.07
2024-04-30T02:08:02.686Z,12.12
2024-04-30T02:10:45.329Z,12.03
2024-04-30T02:13:18.710Z,11.92
2024-04-30T02:16:01.708Z,11.89
2024-04-30T02:18:46.592Z,11.86
2024-04-30T02:21:54.298Z,11.93
2024-04-30T02:24:45.326Z,11.86
2024-04-30T02:27:28.399Z,11.90
2024-04-30T02:30:04.786Z,11.89
2024-04-30T02:33:20.595Z,11.79
2024-04-30T02:37:12.638Z,11.80
2024-04-30T02:47:01.514Z,11.82
2024-04-30T02:49:50.484Z,11.80
2024-04-30T02:52:54.150Z,11.81
2024-04-30T02:55:33.751Z,11.79
2024-04-30T02:58:07.070Z,11.77
2024-04-30T03:00:40.781Z,11.75
2024-04-30T03:03:28.634Z,11.84
2024-04-30T03:09:03.272Z,11.79
2024-04-30T03:11:45.745Z,11.84
2024-04-30T03:14:24.197Z,11.74
2024-04-30T03:16:59.980Z,11.76
2024-04-30T03:20:01.715Z,11.76
2024-04-30T03:22:48.353Z,11.81
2024-04-30T03:26:13.109Z,11.87
2024-04-30T03:28:50.057Z,11.84
2024-04-30T03:31:29.972Z,11.75
2024-04-30T03:34:19.460Z,11.76
2024-04-30T03:37:00.739Z,11.78
2024-04-30T03:39:48.667Z,11.74
2024-04-30T03:42:28.024Z,11.81
2024-04-30T03:45:15.950Z,11.81
2024-04-30T03:48:18.806Z,11.83
2024-04-30T03:50:55.521Z,11.85
2024-04-30T03:53:38.829Z,11.83
2024-04-30T03:56:23.531Z,11.77
2024-04-30T03:59:04.839Z,11.77
2024-04-30T04:02:28.927Z,11.74
2024-04-30T04:04:51.506Z,11.79
2024-04-30T04:07:26.216Z,11.80
2024-04-30T04:10:14.212Z,11.73
2024-04-30T04:14:09.771Z,11.78
2024-04-30T04:17:07.300Z,11.72
2024-04-30T04:19:52.548Z,11.70
2024-04-30T04:22:40.043Z,11.73
2024-04-30T04:25:13.364Z,11.67
2024-04-30T04:27:46.610Z,11.76
2024-04-30T04:30:20.805Z,11.73
2024-04-30T04:32:54.007Z,11.69
2024-04-30T04:35:27.272Z,11.73
2024-04-30T04:38:00.263Z,11.72
2024-04-30T04:40:33.663Z,11.78
2024-04-30T04:43:09.644Z,11.78
2024-04-30T04:45:43.090Z,11.79
2024-04-30T04:48:16.399Z,11.79
2024-04-30T04:50:49.626Z,11.75
2024-04-30T04:53:22.618Z,11.79
2024-04-30T04:55:55.730Z,11.75
2024-04-30T04:58:30.028Z,11.77
2024-04-30T05:01:03.243Z,11.81
2024-04-30T05:03:56.726Z,11.80
2024-04-30T05:06:29.854Z,11.79
2024-04-30T05:09:05.690Z,11.79
2024-04-30T05:11:38.716Z,11.84
2024-04-30T05:14:11.957Z,11.90
2024-04-30T05:16:45.212Z,11.95
2024-04-30T05:19:20.824Z,11.94
2024-04-30T05:21:53.812Z,11.89
2024-04-30T05:24:29.453Z,12.01
2024-04-30T05:27:03.034Z,11.98
2024-04-30T05:29:39.306Z,12.06
2024-04-30T05:32:12.436Z,11.97
2024-04-30T05:34:50.113Z,11.98
2024-04-30T05:37:23.259Z,12.00
2024-04-30T05:39:56.552Z,12.01
2024-04-30T05:42:29.763Z,12.04
2024-04-30T05:45:03.398Z,12.05
2024-04-30T05:47:36.732Z,12.03
2024-04-30T05:50:09.924Z,12.00
2024-04-30T05:52:45.672Z,12.02
2024-04-30T05:55:18.864Z,12.14
2024-04-30T05:57:52.146Z,12.22
2024-04-30T06:00:25.284Z,12.33
2024-04-30T06:03:03.794Z,12.44
2024-04-30T06:05:37.472Z,12.45
2024-04-30T06:08:10.624Z,12.70
2024-04-30T06:10:43.848Z,12.90
2024-04-30T06:13:17.045Z,13.08
2024-04-30T06:15:50.213Z,13.10
2024-04-30T06:18:23.505Z,13.16
2024-04-30T06:20:56.673Z,13.19
2024-04-30T06:23:29.967Z,13.17
2024-04-30T06:26:04.785Z,13.19
2024-04-30T06:28:42.054Z,13.24
2024-04-30T06:31:27.908Z,13.22
2024-04-30T06:34:19.821Z,13.26
2024-04-30T06:37:07.877Z,13.25
2024-04-30T06:39:43.832Z,13.28
2024-04-30T06:42:18.014Z,13.24
2024-04-30T06:44:51.226Z,13.20
2024-04-30T06:48:15.225Z,13.32
2024-04-30T06:50:58.616Z,13.24
2024-04-30T07:02:18.971Z,16.12
2024-04-30T08:19:41.687Z,21.63
2024-04-30T08:22:31.256Z,21.66
2024-04-30T08:25:04.747Z,22.01
2024-04-30T08:27:40.693Z,22.27
2024-04-30T08:30:27.198Z,22.90
2024-04-30T08:33:00.882Z,22.96
2024-04-30T08:35:34.127Z,22.86
2024-04-30T10:22:19.679Z,24.43
2024-04-30T10:24:52.608Z,24.46
2024-04-30T10:27:25.583Z,24.92
2024-04-30T10:29:59.168Z,24.97
2024-04-30T10:32:32.642Z,25.00
2024-04-30T10:35:06.364Z,24.84
2024-04-30T10:37:39.684Z,25.17
2024-04-30T10:40:35.573Z,25.55
2024-04-30T10:43:20.319Z,25.72
2024-04-30T10:45:53.453Z,25.67
2024-04-30T10:48:27.304Z,25.23
2024-04-30T10:51:01.355Z,25.30
2024-04-30T10:53:34.463Z,25.33
2024-04-30T10:56:08.169Z,25.42
2024-04-30T10:59:01.739Z,25.87
2024-04-30T11:01:34.863Z,26.40
2024-04-30T11:04:27.427Z,26.77
2024-04-30T11:07:00.809Z,26.98
2024-04-30T11:10:01.484Z,27.81
2024-04-30T11:12:34.648Z,27.58
2024-04-30T13:57:10.303Z,27.64
2024-04-30T13:59:44.326Z,27.23
2024-04-30T14:02:18.470Z,27.22
2024-04-30T14:04:51.563Z,26.68
2024-04-30T14:07:24.569Z,27.40
2024-04-30T14:09:57.386Z,27.85
2024-04-30T14:12:30.295Z,27.94
2024-04-30T14:15:03.495Z,28.31
2024-04-30T14:17:36.927Z,28.95
2024-04-30T14:20:10.326Z,30.01
2024-04-30T14:22:43.421Z,29.98
2024-04-30T14:25:16.450Z,30.54
2024-04-30T14:27:49.297Z,30.42
2024-04-30T14:30:22.123Z,30.82
2024-04-30T14:32:55.038Z,30.72
2024-04-30T14:35:53.379Z,30.54
2024-04-30T14:38:26.776Z,30.35
2024-04-30T14:40:59.516Z,29.87
2024-04-30T14:43:32.301Z,28.64
2024-04-30T14:46:07.006Z,28.17
2024-04-30T14:48:43.132Z,28.59
2024-04-30T14:51:16.870Z,28.32
2024-04-30T14:53:49.975Z,28.11
2024-04-30T14:56:22.759Z,28.26
2024-04-30T14:58:55.662Z,27.48
2024-04-30T15:01:28.601Z,26.78
2024-04-30T15:04:01.578Z,27.08
2024-04-30T15:06:34.514Z,27.85
2024-04-30T15:09:11.031Z,28.68
2024-04-30T15:11:43.891Z,28.90
2024-04-30T15:14:16.729Z,29.15
2024-04-30T15:16:49.755Z,28.95
2024-04-30T15:19:22.788Z,28.75
2024-04-30T15:21:57.203Z,28.64
2024-04-30T15:24:30.109Z,28.00
2024-04-30T15:27:03.375Z,27.42
2024-04-30T15:29:36.140Z,27.31
2024-04-30T15:32:08.957Z,27.13
2024-04-30T15:34:46.382Z,26.58
2024-04-30T15:37:20.395Z,26.37
2024-04-30T15:39:53.232Z,26.36
2024-04-30T15:42:26.010Z,26.32
2024-04-30T15:44:58.762Z,25.96
2024-04-30T15:47:31.584Z,25.81
2024-04-30T15:50:04.654Z,25.74
2024-04-30T15:52:37.473Z,26.24
2024-04-30T15:55:10.343Z,27.51
2024-04-30T15:57:43.228Z,27.45
2024-04-30T16:00:16.441Z,27.25
2024-04-30T16:02:51.186Z,27.40
2024-04-30T16:05:24.360Z,27.75
2024-04-30T16:07:57.135Z,28.07
2024-04-30T16:10:30.074Z,28.28
2024-04-30T16:13:02.895Z,28.74
2024-04-30T16:15:35.725Z,28.96
2024-04-30T16:18:10.168Z,28.57
2024-04-30T16:20:43.103Z,27.93
2024-04-30T16:23:15.934Z,27.74
2024-04-30T16:25:48.894Z,27.82
2024-04-30T16:28:25.310Z,27.56
2024-04-30T16:30:58.103Z,27.45
2024-04-30T16:33:31.093Z,27.38
2024-04-30T16:36:04.788Z,27.87
2024-04-30T16:38:38.453Z,28.96
2024-04-30T16:41:15.584Z,28.42
2024-04-30T16:43:48.452Z,28.25
2024-04-30T16:46:47.835Z,28.25
2024-04-30T16:49:20.839Z,27.39
2024-04-30T16:51:53.658Z,26.62
2024-04-30T16:54:29.042Z,26.03
2024-04-30T16:57:01.883Z,25.43
2024-04-30T16:59:35.339Z,25.11
2024-04-30T17:02:11.287Z,24.76
2024-04-30T17:04:44.915Z,24.38
2024-04-30T17:07:17.870Z,24.09
2024-04-30T17:09:50.815Z,23.90
2024-04-30T17:12:23.750Z,23.75
2024-04-30T17:14:56.517Z,23.76
2024-04-30T17:17:29.706Z,23.73
2024-04-30T17:20:04.678Z,23.67
2024-04-30T17:22:37.634Z,23.54
2024-04-30T17:25:10.402Z,23.52
2024-04-30T17:27:46.153Z,23.40
2024-04-30T17:30:19.297Z,23.36
2024-04-30T17:32:52.419Z,23.20
2024-04-30T17:35:35.831Z,23.06
2024-04-30T17:38:14.459Z,22.91
2024-04-30T17:40:47.490Z,22.75
2024-04-30T17:43:20.610Z,22.54
2024-04-30T17:45:53.983Z,22.39
2024-04-30T17:48:27.190Z,22.35
2024-04-30T17:51:00.361Z,22.19
2024-04-30T17:53:33.385Z,22.19
2024-04-30T17:56:07.241Z,22.06
2024-04-30T17:58:44.044Z,21.90
2024-04-30T18:01:19.283Z,21.85
2024-04-30T18:03:54.609Z,21.80
2024-04-30T18:09:03.058Z,21.52
2024-04-30T18:11:36.110Z,21.34
2024-04-30T18:14:09.607Z,21.22
2024-04-30T18:16:45.734Z,21.08
2024-04-30T18:19:19.083Z,20.89
2024-04-30T18:21:53.351Z,20.80
2024-04-30T18:24:26.731Z,20.65
2024-04-30T18:27:00.210Z,20.45
2024-04-30T18:29:33.262Z,20.32
2024-04-30T18:32:09.283Z,20.20
2024-04-30T18:34:44.622Z,19.94
